Time;durP1;ratioP1;P1;durP2;ratioP2;P2;SDS_P1;SDS_P2;PMS_P1;PMS_P2;Temp;Humidity;BMP_temperature;BMP_pressure;BME280_temperature;BME280_humidity;BME280_pressure;Samples;Min_cycle;Max_cycle;Signal;HPM_P1;HPM_P2
2022/03/01 00:01:39;;;;;;;27.20;13.73;;;2.00;99.90;;;;;;5002763;28;20518;-44
2022/03/01 00:04:06;;;;;;;25.27;14.10;;;2.00;99.90;;;;;;5002856;28;20460;-49
2022/03/01 00:06:33;;;;;;;30.20;14.53;;;2.00;99.90;;;;;;5006035;28;20218;-45
2022/03/01 00:09:00;;;;;;;23.23;12.93;;;2.10;99.90;;;;;;4993639;28;20232;-46
2022/03/01 00:11:27;;;;;;;25.47;13.00;;;2.10;99.90;;;;;;5020458;28;20646;-47
2022/03/01 00:13:54;;;;;;;29.50;12.47;;;2.20;99.90;;;;;;5001437;28;20282;-48
2022/03/01 00:16:22;;;;;;;26.23;13.43;;;2.10;99.90;;;;;;4998115;28;20465;-44
2022/03/01 00:18:49;;;;;;;25.53;13.73;;;2.10;99.90;;;;;;5008264;28;20221;-48
2022/03/01 00:21:16;;;;;;;26.20;12.37;;;2.10;99.90;;;;;;5016002;28;20242;-43
2022/03/01 00:23:43;;;;;;;24.37;12.47;;;2.10;99.90;;;;;;4989877;28;20262;-44
2022/03/01 00:26:10;;;;;;;24.23;13.13;;;2.00;99.90;;;;;;5019558;28;20246;-45
2022/03/01 00:28:37;;;;;;;24.50;12.93;;;2.00;99.90;;;;;;5008742;28;20317;-45
2022/03/01 00:31:04;;;;;;;26.50;12.80;;;2.00;99.90;;;;;;4998506;28;20236;-45
2022/03/01 00:33:33;;;;;;;23.77;12.47;;;1.90;99.90;;;;;;4995208;28;20195;-44
2022/03/01 00:36:00;;;;;;;27.17;13.47;;;1.80;99.90;;;;;;5015668;28;20383;-45
2022/03/01 00:38:27;;;;;;;27.57;14.33;;;1.80;99.90;;;;;;4995847;28;20388;-46
2022/03/01 00:40:54;;;;;;;24.93;13.33;;;1.80;99.90;;;;;;5012232;28;20587;-46
2022/03/01 00:43:22;;;;;;;29.80;13.90;;;1.90;99.90;;;;;;4999963;28;20282;-46
2022/03/01 00:45:49;;;;;;;25.90;14.43;;;1.80;99.90;;;;;;5002857;28;20362;-45
2022/03/01 00:48:15;;;;;;;27.30;14.13;;;1.90;99.90;;;;;;5017344;28;20222;-46
2022/03/01 00:50:44;;;;;;;25.57;13.53;;;1.90;99.90;;;;;;4999002;28;20419;-46
2022/03/01 00:53:11;;;;;;;24.87;13.80;;;2.00;99.90;;;;;;4994537;28;20211;-45
2022/03/01 00:55:38;;;;;;;25.87;13.70;;;2.00;99.90;;;;;;4992956;28;20763;-46
2022/03/01 00:58:05;;;;;;;24.37;14.30;;;2.00;99.90;;;;;;5020578;28;20279;-45
2022/03/01 01:00:33;;;;;;;27.80;13.60;;;2.00;99.90;;;;;;4993602;28;20211;-44
2022/03/01 01:03:00;;;;;;;23.73;13.80;;;2.00;99.90;;;;;;5017293;28;20221;-44
2022/03/01 01:05:27;;;;;;;27.60;15.23;;;2.00;99.90;;;;;;5004871;28;20311;-44
2022/03/01 01:07:55;;;;;;;27.67;15.23;;;2.00;99.90;;;;;;4995608;28;20431;-46
2022/03/01 01:10:22;;;;;;;27.63;14.60;;;1.90;99.90;;;;;;4997054;28;20216;-46
2022/03/01 01:12:49;;;;;;;26.27;13.33;;;2.00;99.90;;;;;;5014486;28;20298;-48
2022/03/01 01:15:17;;;;;;;27.53;14.63;;;2.00;99.90;;;;;;4999781;28;20319;-47
2022/03/01 01:17:45;;;;;;;31.67;15.37;;;2.00;99.90;;;;;;4997822;28;20325;-49
2022/03/01 01:20:12;;;;;;;24.93;14.10;;;2.00;99.90;;;;;;5005482;28;20317;-48
2022/03/01 01:22:42;;;;;;;27.83;14.53;;;2.00;99.90;;;;;;5001630;28;20230;-49
2022/03/01 01:25:13;;;;;;;26.17;13.50;;;2.10;99.90;;;;;;5000895;28;20402;-44
2022/03/01 01:27:42;;;;;;;24.77;14.07;;;2.00;99.90;;;;;;5006423;28;20242;-49
2022/03/01 01:30:11;;;;;;;27.00;14.13;;;2.00;99.90;;;;;;5001760;28;20438;-42
2022/03/01 01:32:38;;;;;;;27.03;14.33;;;2.00;99.90;;;;;;5010482;28;20418;-47
2022/03/01 01:35:07;;;;;;;27.00;14.33;;;2.00;99.90;;;;;;5010851;28;20235;-46
2022/03/01 01:37:34;;;;;;;25.50;13.20;;;2.00;99.90;;;;;;5007673;28;20214;-48
2022/03/01 01:40:01;;;;;;;27.53;14.13;;;2.00;99.90;;;;;;5000666;28;20304;-48
2022/03/01 01:42:29;;;;;;;23.27;13.50;;;1.90;99.90;;;;;;5018712;28;20227;-46
2022/03/01 01:44:56;;;;;;;27.50;13.87;;;1.90;99.90;;;;;;5000574;28;20273;-47
2022/03/01 01:47:23;;;;;;;26.57;13.60;;;1.90;99.90;;;;;;5009694;28;20279;-43
2022/03/01 01:49:50;;;;;;;24.70;13.37;;;1.90;99.90;;;;;;5010987;28;20320;-49
2022/03/01 01:52:17;;;;;;;25.50;13.63;;;1.90;99.90;;;;;;5009055;28;20303;-45
2022/03/01 01:54:44;;;;;;;22.70;13.40;;;1.90;99.90;;;;;;5006625;28;20452;-44
2022/03/01 01:57:15;;;;;;;26.37;12.73;;;1.90;99.90;;;;;;5003994;28;20552;-45
2022/03/01 01:59:44;;;;;;;23.47;12.80;;;1.90;99.90;;;;;;4998364;28;20213;-44
2022/03/01 02:02:12;;;;;;;25.87;13.83;;;1.80;99.90;;;;;;5006302;28;20708;-44
2022/03/01 02:04:39;;;;;;;25.43;13.13;;;1.90;99.90;;;;;;5017115;28;20302;-44
2022/03/01 02:07:07;;;;;;;25.53;13.87;;;1.90;99.90;;;;;;5013735;28;20585;-45
2022/03/01 02:09:34;;;;;;;23.87;13.03;;;1.90;99.90;;;;;;5006532;28;20249;-46
2022/03/01 02:12:02;;;;;;;26.17;14.03;;;1.90;99.90;;;;;;4992412;28;20386;-44
2022/03/01 02:14:30;;;;;;;23.77;12.83;;;1.90;99.90;;;;;;5008535;28;20538;-44
2022/03/01 02:16:59;;;;;;;26.07;14.67;;;1.90;99.90;;;;;;5006135;28;20238;-44
2022/03/01 02:19:28;;;;;;;26.43;13.10;;;1.90;99.90;;;;;;5001066;28;20202;-44
2022/03/01 02:21:57;;;;;;;28.03;14.53;;;1.90;99.90;;;;;;5001560;28;21433;-46
2022/03/01 02:24:25;;;;;;;26.00;13.10;;;1.80;99.90;;;;;;5004080;28;20221;-45
2022/03/01 02:26:54;;;;;;;23.40;13.33;;;1.80;99.90;;;;;;4981710;28;20293;-46
2022/03/01 02:29:22;;;;;;;25.43;12.57;;;1.80;99.90;;;;;;5010581;28;20669;-45
2022/03/01 02:31:48;;;;;;;26.83;13.23;;;1.70;99.90;;;;;;5009748;28;20621;-45
2022/03/01 02:34:16;;;;;;;24.77;14.23;;;1.70;99.90;;;;;;4997514;28;20275;-44
2022/03/01 02:36:42;;;;;;;26.47;13.30;;;1.80;99.90;;;;;;5012184;28;20279;-45
2022/03/01 02:39:10;;;;;;;23.90;12.93;;;1.70;99.90;;;;;;5002465;28;20410;-44
2022/03/01 02:41:38;;;;;;;23.93;12.97;;;1.60;99.90;;;;;;5002664;28;20231;-45
2022/03/01 02:44:05;;;;;;;26.87;12.23;;;1.60;99.90;;;;;;4992086;28;20452;-44
2022/03/01 02:46:32;;;;;;;28.97;13.93;;;1.60;99.90;;;;;;5015148;28;20281;-44
2022/03/01 02:48:59;;;;;;;22.80;12.90;;;1.60;99.90;;;;;;5001013;28;20223;-44
2022/03/01 02:51:27;;;;;;;26.47;13.70;;;1.60;99.90;;;;;;5017513;28;20250;-43
2022/03/01 02:53:54;;;;;;;26.10;12.23;;;1.60;99.90;;;;;;4990046;28;20501;-44
2022/03/01 02:56:23;;;;;;;22.87;13.03;;;1.60;99.90;;;;;;5017453;28;20219;-44
2022/03/01 02:58:50;;;;;;;22.77;13.07;;;1.50;99.90;;;;;;4999032;28;20203;-45
2022/03/01 03:01:17;;;;;;;23.97;12.30;;;1.50;99.90;;;;;;5010082;28;20234;-44
2022/03/01 03:03:44;;;;;;;26.53;13.33;;;1.50;99.90;;;;;;5003002;28;20598;-44
2022/03/01 03:06:11;;;;;;;29.10;12.80;;;1.40;99.90;;;;;;5010990;28;20212;-44
2022/03/01 03:08:39;;;;;;;23.07;12.47;;;1.40;99.90;;;;;;5001471;28;20218;-45
2022/03/01 03:11:07;;;;;;;25.53;13.03;;;1.40;99.90;;;;;;5011143;28;20216;-44
2022/03/01 03:13:36;;;;;;;20.97;12.03;;;1.40;99.90;;;;;;5017087;28;20569;-44
2022/03/01 03:16:03;;;;;;;24.77;13.27;;;1.30;99.90;;;;;;4986251;28;20207;-45
2022/03/01 03:18:30;;;;;;;21.83;12.57;;;1.30;99.90;;;;;;5010647;28;20324;-44
2022/03/01 03:20:57;;;;;;;24.47;12.90;;;1.30;99.90;;;;;;5002692;28;20428;-44
2022/03/01 03:23:24;;;;;;;23.27;11.80;;;1.30;99.90;;;;;;5015723;28;20202;-44
2022/03/01 03:25:51;;;;;;;25.13;13.10;;;1.20;99.90;;;;;;5008475;28;20398;-45
2022/03/01 03:28:18;;;;;;;29.57;12.90;;;1.20;99.90;;;;;;5018721;28;20222;-44
2022/03/01 03:30:46;;;;;;;25.10;12.53;;;1.30;99.90;;;;;;4991364;28;20206;-44
2022/03/01 03:33:13;;;;;;;24.90;13.03;;;1.30;99.90;;;;;;5020353;28;20557;-45
2022/03/01 03:35:40;;;;;;;27.53;12.50;;;1.30;99.90;;;;;;5010177;28;20218;-44
2022/03/01 03:38:07;;;;;;;23.93;12.90;;;1.20;99.90;;;;;;5003170;28;20489;-44
2022/03/01 03:40:35;;;;;;;25.27;13.53;;;1.20;99.90;;;;;;5013042;28;20407;-45
2022/03/01 03:43:01;;;;;;;22.60;12.63;;;1.10;99.90;;;;;;5001513;28;20249;-45
2022/03/01 03:45:28;;;;;;;26.40;12.90;;;1.10;99.90;;;;;;5020068;28;20285;-45
2022/03/01 03:47:57;;;;;;;26.13;13.13;;;1.10;99.90;;;;;;5002857;28;20533;-44
2022/03/01 03:50:24;;;;;;;26.03;13.17;;;1.10;99.90;;;;;;4995752;28;20491;-45
2022/03/01 03:52:51;;;;;;;23.70;12.07;;;1.10;99.90;;;;;;5018779;28;20254;-44
2022/03/01 03:55:18;;;;;;;27.07;14.17;;;1.10;99.90;;;;;;5011662;28;20321;-45
2022/03/01 03:57:45;;;;;;;22.83;12.80;;;1.10;99.90;;;;;;5010579;28;20233;-46
2022/03/01 04:00:16;;;;;;;24.27;13.40;;;1.10;99.90;;;;;;5012898;28;20296;-44
2022/03/01 04:02:44;;;;;;;23.40;12.70;;;1.10;99.90;;;;;;5005762;28;20325;-43
2022/03/01 04:05:13;;;;;;;23.43;12.80;;;1.10;99.90;;;;;;5008463;28;20326;-42
2022/03/01 04:07:40;;;;;;;24.30;13.60;;;1.00;99.90;;;;;;5006780;28;20197;-44
2022/03/01 04:10:09;;;;;;;28.63;13.17;;;1.10;99.90;;;;;;5007523;28;20241;-45
2022/03/01 04:12:36;;;;;;;27.53;12.90;;;1.10;99.90;;;;;;5011393;28;20232;-45
2022/03/01 04:15:03;;;;;;;28.77;13.77;;;1.10;99.90;;;;;;5007993;28;20287;-46
2022/03/01 04:17:30;;;;;;;23.33;12.67;;;1.10;99.90;;;;;;5002576;28;20212;-45
2022/03/01 04:19:57;;;;;;;25.23;14.00;;;1.20;99.90;;;;;;5011416;28;20573;-46
2022/03/01 04:22:26;;;;;;;20.10;12.30;;;1.10;99.90;;;;;;5008287;28;20653;-44
2022/03/01 04:24:53;;;;;;;22.30;12.57;;;1.20;99.90;;;;;;5009877;28;20248;-46
2022/03/01 04:27:20;;;;;;;24.60;12.97;;;1.10;99.90;;;;;;4992996;28;20558;-44
2022/03/01 04:29:47;;;;;;;24.30;13.77;;;1.10;99.90;;;;;;5017314;28;20219;-45
2022/03/01 04:32:14;;;;;;;21.93;12.53;;;1.20;99.90;;;;;;4989538;28;20550;-46
2022/03/01 04:34:41;;;;;;;19.97;11.83;;;1.10;99.90;;;;;;5006201;28;20388;-45
2022/03/01 04:37:09;;;;;;;25.50;12.90;;;1.10;99.90;;;;;;5014816;28;20213;-46
2022/03/01 04:39:37;;;;;;;21.17;11.00;;;1.10;99.90;;;;;;5000623;28;20462;-45
2022/03/01 04:42:05;;;;;;;26.27;13.03;;;1.00;99.90;;;;;;5004620;28;20230;-44
2022/03/01 04:44:32;;;;;;;22.00;12.53;;;1.10;99.90;;;;;;5003758;28;20388;-44
2022/03/01 04:46:59;;;;;;;23.10;11.67;;;1.10;99.90;;;;;;5007260;28;23191;-46
2022/03/01 04:49:26;;;;;;;22.90;12.43;;;1.10;99.90;;;;;;4990634;28;20387;-44
2022/03/01 04:51:53;;;;;;;25.33;12.67;;;1.20;99.90;;;;;;4999574;28;20230;-45
2022/03/01 04:54:20;;;;;;;24.30;11.47;;;1.20;99.90;;;;;;5008003;28;20210;-46
2022/03/01 04:56:48;;;;;;;19.03;11.80;;;1.10;99.90;;;;;;4986975;28;20326;-48
2022/03/01 04:59:15;;;;;;;29.00;12.37;;;1.10;99.90;;;;;;5007062;28;20213;-46
2022/03/01 05:01:42;;;;;;;23.47;12.80;;;1.10;99.90;;;;;;4994687;28;20225;-43
2022/03/01 05:04:09;;;;;;;23.73;12.80;;;1.20;99.90;;;;;;5000651;28;20213;-46
2022/03/01 05:06:36;;;;;;;22.27;12.00;;;1.20;99.90;;;;;;5014727;28;20286;-47
2022/03/01 05:09:03;;;;;;;22.87;11.40;;;1.10;99.90;;;;;;4991565;28;20233;-44
2022/03/01 05:11:30;;;;;;;19.33;11.20;;;1.10;99.90;;;;;;5016989;28;20225;-45
2022/03/01 05:13:59;;;;;;;19.67;11.27;;;1.10;99.90;;;;;;4985577;28;20497;-43
2022/03/01 05:16:26;;;;;;;24.97;12.00;;;1.00;99.90;;;;;;5008559;28;20863;-44
2022/03/01 05:18:52;;;;;;;23.23;11.73;;;1.00;99.90;;;;;;5002243;28;20230;-44
2022/03/01 05:21:19;;;;;;;23.87;12.33;;;1.00;99.90;;;;;;5006865;28;20585;-44
2022/03/01 05:23:46;;;;;;;21.70;11.93;;;1.10;99.90;;;;;;5010572;28;20218;-44
2022/03/01 05:26:14;;;;;;;22.37;11.70;;;1.00;99.90;;;;;;5004901;28;20202;-45
2022/03/01 05:28:41;;;;;;;22.63;12.03;;;1.10;99.90;;;;;;5013111;28;20435;-45
2022/03/01 05:31:09;;;;;;;25.20;12.30;;;1.10;99.90;;;;;;5004008;28;20251;-48
2022/03/01 05:33:36;;;;;;;18.57;11.30;;;1.10;99.90;;;;;;4996974;28;20219;-46
2022/03/01 05:36:04;;;;;;;22.33;11.63;;;1.10;99.90;;;;;;4998523;28;20214;-45
2022/03/01 05:38:32;;;;;;;18.70;11.07;;;1.10;99.90;;;;;;5014076;28;20190;-45
2022/03/01 05:40:59;;;;;;;21.00;11.20;;;1.10;99.90;;;;;;5007600;28;20218;-45
2022/03/01 05:43:26;;;;;;;21.03;11.90;;;1.10;99.90;;;;;;5013275;28;20207;-45
2022/03/01 05:45:53;;;;;;;23.03;11.17;;;1.10;99.90;;;;;;5004757;28;20517;-45
2022/03/01 05:48:21;;;;;;;19.03;10.80;;;1.10;99.90;;;;;;4995995;28;20343;-45
2022/03/01 05:50:48;;;;;;;18.57;10.87;;;1.10;99.90;;;;;;4992968;28;20297;-44
2022/03/01 05:53:15;;;;;;;19.10;10.23;;;1.10;99.90;;;;;;4997041;28;20213;-44
2022/03/01 05:55:42;;;;;;;20.47;10.17;;;1.20;99.90;;;;;;5003200;28;20256;-45
2022/03/01 05:58:09;;;;;;;17.97;11.20;;;1.30;99.90;;;;;;5004699;28;20582;-44
2022/03/01 06:00:36;;;;;;;14.93;8.67;;;1.30;99.90;;;;;;5008411;28;20282;-44
2022/03/01 06:03:03;;;;;;;23.67;12.27;;;1.60;99.90;;;;;;4997885;28;20871;-44
2022/03/01 06:05:32;;;;;;;21.23;12.10;;;2.20;99.90;;;;;;5008507;28;20355;-44
2022/03/01 06:07:59;;;;;;;17.90;9.00;;;2.10;99.90;;;;;;4998000;28;20576;-44
2022/03/01 06:10:27;;;;;;;24.07;11.93;;;2.60;99.90;;;;;;4994533;28;20252;-46
2022/03/01 06:12:54;;;;;;;19.47;10.40;;;3.80;99.90;;;;;;4993939;28;20558;-45
2022/03/01 06:15:20;;;;;;;20.47;10.20;;;4.00;99.90;;;;;;5015504;28;20282;-44
2022/03/01 06:17:48;;;;;;;18.03;10.00;;;4.00;99.90;;;;;;4984540;28;20221;-45
2022/03/01 06:20:15;;;;;;;19.63;11.40;;;3.90;99.90;;;;;;5003095;28;20577;-44
2022/03/01 06:22:43;;;;;;;22.73;11.37;;;4.00;99.90;;;;;;4997904;28;20230;-44
2022/03/01 06:25:11;;;;;;;24.47;10.70;;;3.60;99.90;;;;;;4995077;28;20212;-45
2022/03/01 06:27:39;;;;;;;16.30;10.03;;;3.20;99.90;;;;;;5012361;28;20309;-45
2022/03/01 06:30:07;;;;;;;18.80;10.50;;;2.70;99.90;;;;;;4987259;28;20849;-44
2022/03/01 06:32:35;;;;;;;20.47;10.67;;;2.40;99.90;;;;;;5007730;28;20236;-44
2022/03/01 06:35:02;;;;;;;20.13;10.33;;;2.10;99.90;;;;;;4996089;28;20728;-45
2022/03/01 06:37:29;;;;;;;18.77;10.37;;;2.00;99.90;;;;;;5011356;28;20762;-45
2022/03/01 06:39:57;;;;;;;22.53;11.27;;;1.90;99.90;;;;;;4997896;28;20205;-45
2022/03/01 06:42:24;;;;;;;25.27;10.20;;;1.90;99.90;;;;;;5022095;28;20516;-44
2022/03/01 06:44:50;;;;;;;19.57;10.60;;;1.80;99.90;;;;;;5019106;28;20483;-48
2022/03/01 06:47:18;;;;;;;18.70;10.47;;;1.80;99.90;;;;;;4990537;28;20215;-46
2022/03/01 06:49:45;;;;;;;21.37;10.87;;;1.70;99.90;;;;;;5015271;28;20650;-47
2022/03/01 06:52:12;;;;;;;20.13;10.90;;;1.70;99.90;;;;;;5019889;28;20264;-43
2022/03/01 06:54:39;;;;;;;21.47;10.10;;;1.80;99.90;;;;;;5000691;28;20249;-48
2022/03/01 06:57:07;;;;;;;18.83;10.17;;;1.70;99.90;;;;;;5009252;28;20245;-43
2022/03/01 06:59:34;;;;;;;21.33;10.47;;;1.70;99.90;;;;;;5025060;28;20781;-45
2022/03/01 07:02:00;;;;;;;23.07;10.57;;;1.70;99.90;;;;;;5004526;28;20302;-44
2022/03/01 07:04:27;;;;;;;21.63;10.93;;;1.80;99.90;;;;;;5013912;28;20249;-47
2022/03/01 07:06:54;;;;;;;20.50;10.97;;;1.80;99.90;;;;;;4994895;28;20700;-47
2022/03/01 07:09:21;;;;;;;17.70;10.17;;;1.90;99.90;;;;;;4993306;28;20234;-43
2022/03/01 07:11:48;;;;;;;22.90;11.03;;;1.90;99.90;;;;;;5005075;28;20232;-47
2022/03/01 07:14:17;;;;;;;19.50;11.17;;;1.90;99.90;;;;;;5010295;28;20523;-46
2022/03/01 07:16:44;;;;;;;20.93;11.03;;;1.90;99.90;;;;;;5019925;28;20242;-46
2022/03/01 07:19:10;;;;;;;22.63;9.83;;;2.00;99.90;;;;;;4984810;28;20202;-45
2022/03/01 07:21:37;;;;;;;23.43;10.60;;;2.00;99.90;;;;;;5020964;28;20238;-49
2022/03/01 07:24:05;;;;;;;24.87;11.20;;;2.00;99.90;;;;;;4994460;28;20879;-44
2022/03/01 07:26:32;;;;;;;21.27;10.20;;;2.00;99.90;;;;;;5018093;28;20569;-45
2022/03/01 07:28:58;;;;;;;17.67;10.23;;;2.00;99.90;;;;;;5009852;28;20202;-45
2022/03/01 07:31:27;;;;;;;19.70;10.13;;;2.10;99.90;;;;;;5011600;28;20231;-45
2022/03/01 07:33:54;;;;;;;22.13;10.73;;;2.10;99.90;;;;;;5009241;28;20424;-44
2022/03/01 07:36:20;;;;;;;20.23;10.17;;;2.10;99.90;;;;;;5010846;28;20208;-45
2022/03/01 07:38:47;;;;;;;18.03;10.97;;;2.10;99.90;;;;;;5000482;28;20364;-43
2022/03/01 07:41:14;;;;;;;17.53;9.23;;;2.20;99.90;;;;;;5001302;28;20477;-45
2022/03/01 07:43:41;;;;;;;18.13;10.07;;;2.20;99.90;;;;;;5001829;28;20214;-44
2022/03/01 07:46:11;;;;;;;18.77;10.23;;;2.30;99.90;;;;;;5006403;28;20285;-44
2022/03/01 07:48:40;;;;;;;17.83;9.73;;;2.30;99.90;;;;;;5014438;28;20208;-45
2022/03/01 07:51:07;;;;;;;19.97;10.73;;;2.30;99.90;;;;;;4996642;28;20501;-44
2022/03/01 07:53:34;;;;;;;26.03;10.67;;;2.30;99.90;;;;;;5007549;28;20382;-44
2022/03/01 07:56:01;;;;;;;18.93;10.07;;;2.30;99.90;;;;;;5002866;28;20201;-44
2022/03/01 07:58:28;;;;;;;17.70;9.70;;;2.40;99.90;;;;;;4994387;28;20695;-45
2022/03/01 08:00:55;;;;;;;16.80;9.97;;;2.40;99.90;;;;;;5014258;28;20424;-45
2022/03/01 08:03:22;;;;;;;20.80;10.43;;;2.50;99.90;;;;;;4996091;28;20514;-45
2022/03/01 08:05:51;;;;;;;16.70;9.63;;;2.50;99.90;;;;;;5014773;28;20488;-45
2022/03/01 08:08:18;;;;;;;20.87;10.27;;;2.60;99.90;;;;;;4985824;28;20209;-45
2022/03/01 08:10:45;;;;;;;19.93;10.53;;;2.80;99.90;;;;;;5004456;28;20251;-45
2022/03/01 08:13:12;;;;;;;18.60;10.97;;;2.90;99.90;;;;;;4993881;28;20292;-44
2022/03/01 08:15:38;;;;;;;18.13;9.47;;;2.90;99.90;;;;;;5009778;28;20236;-45
2022/03/01 08:18:06;;;;;;;17.17;9.63;;;2.90;99.90;;;;;;5006948;28;20226;-45
2022/03/01 08:20:33;;;;;;;26.13;10.27;;;2.90;99.90;;;;;;5001362;28;20279;-44
2022/03/01 08:23:02;;;;;;;18.83;10.37;;;2.90;99.90;;;;;;4994288;28;20223;-44
2022/03/01 08:25:29;;;;;;;18.27;10.10;;;2.90;99.90;;;;;;4995196;28;20225;-44
2022/03/01 08:27:57;;;;;;;17.77;9.30;;;2.90;99.90;;;;;;4998039;28;20574;-45
2022/03/01 08:30:24;;;;;;;21.80;10.97;;;3.00;99.90;;;;;;5020159;28;20222;-44
2022/03/01 08:32:52;;;;;;;20.43;9.67;;;3.10;99.90;;;;;;5001972;28;20220;-46
2022/03/01 08:35:20;;;;;;;19.47;10.43;;;3.10;99.90;;;;;;5014511;28;20264;-44
2022/03/01 08:37:47;;;;;;;18.87;10.20;;;3.10;99.90;;;;;;4984824;28;20728;-44
2022/03/01 08:40:18;;;;;;;17.03;10.07;;;3.20;99.90;;;;;;4997950;28;20328;-44
2022/03/01 08:42:46;;;;;;;26.00;11.30;;;3.20;99.90;;;;;;5010315;28;20556;-43
2022/03/01 08:45:13;;;;;;;17.83;10.27;;;3.30;99.90;;;;;;5009814;28;20233;-45
2022/03/01 08:47:41;;;;;;;19.37;10.03;;;3.40;99.90;;;;;;5012802;28;20543;-44
2022/03/01 08:50:10;;;;;;;18.50;11.03;;;3.40;99.90;;;;;;5004671;28;20305;-44
2022/03/01 08:52:39;;;;;;;20.77;9.80;;;3.40;99.90;;;;;;4992661;28;20304;-44
2022/03/01 08:55:07;;;;;;;18.40;10.50;;;3.40;99.90;;;;;;4999394;28;20205;-44
2022/03/01 08:57:35;;;;;;;22.97;10.43;;;3.50;99.90;;;;;;4987863;28;20539;-45
2022/03/01 09:00:03;;;;;;;18.40;8.87;;;3.50;99.90;;;;;;5008653;28;20602;-44
2022/03/01 09:02:30;;;;;;;18.43;9.70;;;3.50;99.90;;;;;;5011143;28;20703;-45
2022/03/01 09:04:56;;;;;;;17.77;10.10;;;3.60;99.90;;;;;;4999957;28;20822;-43
2022/03/01 09:07:24;;;;;;;23.73;10.50;;;3.60;99.90;;;;;;5014098;28;20285;-45
2022/03/01 09:09:51;;;;;;;21.63;10.27;;;3.60;99.90;;;;;;5005817;28;20203;-44
2022/03/01 09:12:18;;;;;;;17.57;10.23;;;3.70;99.90;;;;;;4986877;28;20339;-44
2022/03/01 09:14:47;;;;;;;17.20;10.57;;;3.70;99.90;;;;;;5010395;28;20281;-45
2022/03/01 09:17:13;;;;;;;17.53;10.30;;;3.80;99.90;;;;;;5005384;28;20589;-45
2022/03/01 09:19:40;;;;;;;20.67;10.63;;;3.80;99.90;;;;;;5013076;28;20206;-45
2022/03/01 09:22:07;;;;;;;16.47;9.87;;;3.90;99.90;;;;;;5013342;28;20489;-45
2022/03/01 09:24:34;;;;;;;17.33;10.07;;;4.00;99.90;;;;;;5007533;28;20522;-45
2022/03/01 09:27:02;;;;;;;17.40;10.23;;;4.10;99.90;;;;;;4990070;28;20200;-45
2022/03/01 09:29:30;;;;;;;19.27;10.50;;;4.20;99.90;;;;;;5015728;28;20414;-43
2022/03/01 09:31:59;;;;;;;19.90;10.00;;;4.20;99.90;;;;;;4998321;28;20225;-44
2022/03/01 09:34:26;;;;;;;18.30;10.23;;;4.30;99.90;;;;;;5004212;28;20281;-45
2022/03/01 09:36:54;;;;;;;17.60;9.83;;;4.40;99.90;;;;;;5009986;28;20225;-46
2022/03/01 09:39:21;;;;;;;19.77;10.47;;;4.40;99.90;;;;;;5007346;28;20233;-46
2022/03/01 09:41:48;;;;;;;17.03;10.13;;;4.40;99.90;;;;;;5012236;28;20228;-45
2022/03/01 09:44:18;;;;;;;17.20;10.47;;;4.40;99.90;;;;;;4987067;28;20313;-45
2022/03/01 09:46:45;;;;;;;19.03;10.47;;;4.40;99.90;;;;;;5015946;28;20577;-45
2022/03/01 09:49:13;;;;;;;17.93;10.57;;;4.40;99.90;;;;;;4992015;28;20425;-44
2022/03/01 09:51:42;;;;;;;19.47;10.57;;;4.50;99.90;;;;;;5013188;28;20313;-44
2022/03/01 09:54:09;;;;;;;19.00;9.97;;;4.50;99.90;;;;;;5007790;28;20319;-45
2022/03/01 09:56:36;;;;;;;21.07;10.07;;;4.60;99.90;;;;;;5007632;28;20523;-44
2022/03/01 09:59:03;;;;;;;18.80;9.73;;;4.60;99.90;;;;;;5000331;28;20222;-45
2022/03/01 10:01:30;;;;;;;21.60;10.00;;;4.80;99.90;;;;;;5004278;28;20304;-45
2022/03/01 10:04:07;;;;;;;16.67;9.80;;;4.80;99.90;;;;;;5022143;28;20600;-45
2022/03/01 10:06:41;;;;;;;16.17;9.50;;;4.80;99.90;;;;;;5000818;28;20330;-46
2022/03/01 10:09:15;;;;;;;17.27;9.90;;;4.80;99.90;;;;;;5005544;28;20236;-47
2022/03/01 10:11:42;;;;;;;18.23;10.47;;;4.90;99.90;;;;;;5019512;28;20297;-45
2022/03/01 10:14:09;;;;;;;16.00;9.70;;;4.90;99.90;;;;;;4993734;28;20217;-46
2022/03/01 10:16:41;;;;;;;16.63;10.07;;;4.90;99.90;;;;;;5008253;28;20752;-46
2022/03/01 10:19:17;;;;;;;18.93;9.70;;;5.00;99.90;;;;;;5009673;28;27057;-46
2022/03/01 10:21:48;;;;;;;18.77;10.00;;;4.90;99.90;;;;;;5014336;28;20765;-45
2022/03/01 10:24:15;;;;;;;15.40;9.57;;;5.00;99.90;;;;;;5017247;28;20213;-46
2022/03/01 10:26:44;;;;;;;22.47;10.43;;;5.10;99.90;;;;;;4993439;28;20549;-46
2022/03/01 10:29:11;;;;;;;17.20;10.27;;;5.20;99.90;;;;;;5010294;28;20407;-47
2022/03/01 10:31:39;;;;;;;17.13;9.80;;;5.40;99.90;;;;;;5002994;28;20475;-45
2022/03/01 10:34:07;;;;;;;19.77;10.87;;;5.40;99.90;;;;;;5011574;28;23052;-45
2022/03/01 10:36:36;;;;;;;22.97;11.63;;;5.50;99.90;;;;;;5018077;28;20414;-45
2022/03/01 10:39:06;;;;;;;16.43;9.77;;;5.60;99.90;;;;;;5004965;28;20249;-44
2022/03/01 10:41:35;;;;;;;17.03;9.77;;;5.70;99.90;;;;;;5004391;28;20300;-45
2022/03/01 10:44:03;;;;;;;22.30;10.53;;;5.70;99.90;;;;;;5017427;28;20204;-45
2022/03/01 10:46:31;;;;;;;19.00;10.07;;;5.80;99.90;;;;;;4998918;28;20227;-45
2022/03/01 10:49:07;;;;;;;17.03;9.67;;;5.80;99.90;;;;;;5008690;28;20298;-45
2022/03/01 10:51:35;;;;;;;15.40;9.73;;;5.90;99.90;;;;;;5015044;28;20234;-45
2022/03/01 10:54:02;;;;;;;17.83;10.37;;;5.90;99.90;;;;;;5013128;28;20473;-45
2022/03/01 10:56:38;;;;;;;18.17;9.73;;;5.90;99.90;;;;;;5010799;28;20291;-45
2022/03/01 10:59:06;;;;;;;19.33;10.10;;;5.90;99.90;;;;;;5008602;28;20311;-47
2022/03/01 11:01:33;;;;;;;17.77;10.40;;;5.90;99.90;;;;;;5008467;28;20235;-46
2022/03/01 11:04:00;;;;;;;15.77;9.40;;;6.00;99.90;;;;;;5004601;28;20245;-49
2022/03/01 11:06:28;;;;;;;20.40;9.93;;;6.00;99.90;;;;;;5004688;28;20247;-45
2022/03/01 11:08:55;;;;;;;21.37;10.67;;;6.10;99.90;;;;;;5009104;28;20312;-46
2022/03/01 11:11:26;;;;;;;17.23;10.00;;;6.10;99.90;;;;;;5010071;28;20230;-45
2022/03/01 11:13:55;;;;;;;16.37;10.13;;;6.10;99.90;;;;;;4996935;28;20250;-45
2022/03/01 11:16:34;;;;;;;17.43;10.10;;;6.20;99.90;;;;;;4999345;28;20207;-45
2022/03/01 11:19:36;;;;;;;16.63;10.13;;;6.20;99.90;;;;;;5010667;28;20204;-46
2022/03/01 11:22:03;;;;;;;15.33;9.63;;;6.20;99.90;;;;;;5006917;28;20221;-46
2022/03/01 11:24:31;;;;;;;18.47;10.07;;;6.20;99.90;;;;;;5020710;28;20224;-45
2022/03/01 11:27:05;;;;;;;17.83;10.50;;;6.20;99.90;;;;;;4988168;28;20580;-44
2022/03/01 11:29:39;;;;;;;19.10;10.07;;;6.30;99.90;;;;;;5016176;28;20220;-46
2022/03/01 11:32:11;;;;;;;17.63;10.57;;;6.30;99.90;;;;;;4989738;28;20252;-45
2022/03/01 11:34:39;;;;;;;17.70;10.03;;;6.30;99.90;;;;;;5015452;28;20207;-46
2022/03/01 11:37:14;;;;;;;18.20;10.47;;;6.40;99.90;;;;;;5002522;28;20285;-45
2022/03/01 11:39:40;;;;;;;18.23;9.37;;;6.40;99.90;;;;;;5018593;28;20254;-46
2022/03/01 11:42:08;;;;;;;16.53;9.67;;;6.40;99.90;;;;;;4988023;28;20226;-45
2022/03/01 11:44:40;;;;;;;21.87;10.23;;;6.40;99.90;;;;;;5017819;28;20215;-45
2022/03/01 11:47:09;;;;;;;20.20;9.23;;;6.50;99.90;;;;;;4998524;28;20394;-45
2022/03/01 11:49:39;;;;;;;21.63;10.67;;;6.50;99.90;;;;;;5016345;28;20200;-43
2022/03/01 11:52:16;;;;;;;15.53;9.83;;;6.50;99.90;;;;;;5020075;28;20303;-44
2022/03/01 11:54:44;;;;;;;15.50;9.40;;;6.60;99.90;;;;;;4994404;28;20214;-46
2022/03/01 11:57:13;;;;;;;14.43;9.83;;;6.60;99.90;;;;;;5002082;28;20422;-43
2022/03/01 11:59:43;;;;;;;16.20;10.33;;;6.60;99.90;;;;;;5011777;28;20288;-45
2022/03/01 12:02:11;;;;;;;18.10;10.10;;;6.60;99.90;;;;;;4983241;28;20325;-45
2022/03/01 12:04:46;;;;;;;16.13;9.27;;;6.70;99.90;;;;;;5014074;28;20284;-45
2022/03/01 12:07:18;;;;;;;17.13;10.10;;;6.70;99.90;;;;;;5001905;28;20470;-45
2022/03/01 12:09:55;;;;;;;17.57;9.73;;;6.70;99.90;;;;;;5016512;28;20236;-47
2022/03/01 12:12:32;;;;;;;13.03;8.47;;;6.70;99.90;;;;;;4999746;28;20743;-46
2022/03/01 12:15:01;;;;;;;18.27;9.67;;;6.70;99.90;;;;;;4991017;28;20261;-47
2022/03/01 12:17:28;;;;;;;16.00;9.53;;;6.70;99.90;;;;;;4990585;28;20212;-45
2022/03/01 12:20:08;;;;;;;15.43;9.70;;;6.70;99.90;;;;;;5002552;28;20209;-45
2022/03/01 12:22:35;;;;;;;13.67;8.70;;;6.80;99.90;;;;;;5020656;28;20296;-45
2022/03/01 12:25:02;;;;;;;14.73;8.67;;;6.80;99.90;;;;;;5010415;28;20408;-45
2022/03/01 12:27:31;;;;;;;17.40;9.83;;;6.80;99.90;;;;;;5008938;28;20301;-46
2022/03/01 12:30:04;;;;;;;19.67;11.10;;;6.90;99.90;;;;;;4992528;28;20217;-49
2022/03/01 12:32:33;;;;;;;14.80;9.73;;;6.80;99.90;;;;;;4997922;28;20965;-43
2022/03/01 12:35:02;;;;;;;19.33;9.23;;;6.90;99.90;;;;;;5019397;28;20326;-44
2022/03/01 12:37:29;;;;;;;16.50;10.57;;;7.00;99.90;;;;;;5004129;28;20285;-45
2022/03/01 12:39:56;;;;;;;16.57;9.63;;;7.00;99.90;;;;;;5021252;28;20572;-43
2022/03/01 12:42:27;;;;;;;15.90;9.50;;;7.00;99.90;;;;;;5011017;28;20455;-45